Eskilstuna

Denna dag blev oväntat kryddad med lite Mooney-flygning! Martin H behövde skjuts till Eskilstuna (ESSU) för att hämta hem SE-LTM som hade varit på service.

Martin

En halvtimmas flygning dit med fart över mark uppåt 185 knop. Soligt och fint med en svag front i ryggen. Denna front begav sig så smått in över Linköping, så på väg hem blev det lite måttligare fart och  en tvättäkta ILS-inflygning till bana 11 i följande väder: ESSL 071320Z 07007KT 1900 SN FEW009 BKN011 M06/M06 Q1008=

IMC!

Fantastiskt vackert att få kontakt med 100% inflygningsljus och en fin rullblixt!ILS bana 11

Tailwinds!

/Robin

Comments are closed.